Metropolis, Nevada
Current Conditions -  °F | °C
As of 6:55 PM on Friday 19 Dec 2014 (Local Time) from KENV Reporting Station
Overcast Overcast  
Wind Chill: 33°   Ceiling: 4400
Heat Index: 37°   Visibility: 10mi
Dew Point: 28°   Wind: 6mph
Humidity: 70%   Direction: 160°SSE
Pressure: 30.13"   Gusts: NA
Location:  41.0114°N, 114.57°W
Report Text: KENV 200255Z AUTO 16005KT 10SM OVC044 03/M02 A3013 RMK AO1 52010
Loading
Personal Weather Stations






























Interactive Weather Map New forecast layout! Learn more

10-Day Weather Forecast

Advertisements
Track Severe Weather on mobile